Latest Weather Observations for Beaudesert AWS

IDQ60901

Issued at 12:01 pm EST Friday 28 August 2015 (issued every 10 minutes, with the page automatically refreshed every 10 minutes)

About weather observations | Map of Brisbane area stations | Latest observations for Brisbane area | Other Formats
Station Details ID: 040983 Name: BEAUDESERT DRUMLEY STREET Lat: -27.97 Lon: 152.99 Height: 47.81 m
Data from the previous 72 hours. | See also: Recent months at Beaudesert AWS
Date/Time
EST
Tmp

°C
App
Tmp
°C
Dew
Point
°C
Rel
Hum
%
Delta-T

°C
Wind Press
QNH
hPa
Press
MSL
hPa
Rain
since
9 am
mm
Dir
 
Spd
km/h
Gust
km/h
Spd
kts
Gust
kts
28/12:00pm 22.1 21.5 8.9 43 7.0 NW 2 7 1 4 1020.5 1020.5 0.0
28/11:30am 21.5 20.1 9.4 46 6.5 SSW 7 15 4 8 1021.1 1021.1 0.0
28/11:00am 21.0 19.8 10.2 50 5.8 SW 7 13 4 7 1021.7 1021.7 0.0
28/10:30am 20.5 18.6 9.1 48 6.0 S 9 13 5 7 1022.1 1022.1 0.0
28/10:00am 19.8 18.0 10.8 56 4.9 SW 11 17 6 9 1022.1 1022.1 0.0
28/09:30am 18.0 18.9 13.9 77 2.3 NNW 2 6 1 3 1022.5 1022.5 0.0
28/09:00am 16.1 17.5 14.5 90 0.9 CALM 0 4 0 2 1022.5 1022.5 6.6
28/08:30am 14.9 15.7 13.6 92 0.7 SW 2 4 1 2 1022.4 1022.4 6.6
28/08:00am 14.7 15.8 13.6 93 0.6 CALM 0 0 0 0 1022.2 1022.2 6.6
28/07:30am 14.1 15.1 13.1 94 0.6 CALM 0 0 0 0 1022.3 1022.3 6.6
28/07:00am 13.6 14.4 12.7 94 0.5 CALM 0 0 0 0 1021.7 1021.7 6.6
28/06:30am 13.2 13.9 12.3 94 0.5 CALM 0 0 0 0 1021.6 1021.6 6.4
28/06:00am 13.5 13.9 12.6 94 0.5 NNW 2 6 1 3 1021.3 1021.3 6.4
28/05:30am 13.4 14.2 12.5 94 0.5 CALM 0 0 0 0 1021.0 1021.0 6.4
28/05:00am 13.4 14.2 12.5 94 0.5 CALM 0 0 0 0 1020.6 1020.6 6.4
28/04:30am 13.3 13.7 12.4 94 0.5 W 2 6 1 3 1020.2 1020.2 6.4
28/04:00am 13.3 14.1 12.4 94 0.5 CALM 0 0 0 0 1020.3 1020.3 6.4
28/03:30am 13.4 13.7 12.3 93 0.6 S 2 6 1 3 1020.2 1020.2 6.4
28/03:00am 13.4 14.1 12.3 93 0.6 CALM 0 0 0 0 1020.3 1020.3 6.4
28/02:30am 13.3 14.0 12.2 93 0.6 CALM 0 4 0 2 1020.7 1020.7 6.4
28/02:00am 13.2 13.9 12.1 93 0.6 CALM 0 0 0 0 1020.9 1020.9 6.2
28/01:30am 13.2 12.8 12.3 94 0.5 W 6 6 3 3 1021.3 1021.3 6.2
28/01:00am 13.0 13.3 12.1 94 0.5 ESE 2 6 1 3 1020.7 1020.7 6.2
28/12:30am 12.9 13.5 12.0 94 0.5 CALM 0 0 0 0 1021.8 1021.8 6.2
28/12:00am 12.7 12.5 11.8 94 0.5 SSW 4 6 2 3 1021.4 1021.4 6.2
 
Date/Time
EST
Tmp

°C
App
Tmp
°C
Dew
Point
°C
Rel
Hum
%
Delta-T

°C
Wind Press
QNH
hPa
Press
MSL
hPa
Rain
since
9 am
mm
Dir
 
Spd
km/h
Gust
km/h
Spd
kts
Gust
kts
27/11:30pm 12.6 13.1 11.7 94 0.5 CALM 0 0 0 0 1021.4 1021.4 6.2
27/11:00pm 12.8 13.4 11.9 94 0.5 CALM 0 0 0 0 1021.5 1021.5 6.2
27/10:30pm 12.9 13.5 12.0 94 0.5 CALM 0 0 0 0 1021.8 1021.8 6.2
27/10:00pm 13.0 13.6 11.9 93 0.6 CALM 0 0 0 0 1021.5 1021.5 6.2
27/09:30pm 13.1 13.7 11.8 92 0.7 CALM 0 0 0 0 1021.7 1021.7 6.2
27/09:00pm 13.1 13.7 12.0 93 0.6 CALM 0 0 0 0 1021.7 1021.7 6.2
27/08:30pm 13.3 14.0 12.2 93 0.6 CALM 0 0 0 0 1021.7 1021.7 6.2
27/08:00pm 13.1 13.7 11.8 92 0.7 CALM 0 0 0 0 1021.1 1021.1 6.2
27/07:30pm 13.0 13.2 11.7 92 0.7 ESE 2 2 1 1 1020.9 1020.9 6.2
27/07:00pm 13.1 12.9 11.7 91 0.7 S 4 6 2 3 1020.7 1020.7 6.2
27/06:30pm 13.3 13.9 11.9 91 0.8 CALM 0 0 0 0 1020.8 1020.8 6.2
27/06:00pm 13.5 14.1 11.9 90 0.9 CALM 0 0 0 0 1020.6 1020.6 6.2
27/05:30pm 13.6 13.9 12.2 91 0.8 SSW 2 4 1 2 1020.6 1020.6 6.0
27/05:00pm 13.6 13.1 12.2 91 0.8 SE 6 7 3 4 1020.1 1020.1 6.0
27/04:30pm 13.4 13.2 11.8 90 0.9 ESE 4 6 2 3 1020.2 1020.2 6.0
27/04:00pm 13.5 13.2 11.6 88 1.0 ENE 4 6 2 3 1020.4 1020.4 5.8
27/03:30pm 14.1 14.2 11.6 85 1.3 NE 2 7 1 4 1020.4 1020.4 5.4
27/03:00pm 14.6 14.7 12.6 88 1.1 N 4 6 2 3 1020.3 1020.3 4.2
27/02:30pm 14.7 15.1 11.3 80 1.8 CALM 0 0 0 0 1020.1 1020.1 3.4
27/02:00pm 16.7 15.7 11.0 69 3.1 WNW 7 13 4 7 1020.5 1020.5 0.8
27/01:30pm 20.1 18.2 6.8 42 6.7 W 6 7 3 4 1019.3 1019.3 0.0
27/01:00pm 20.7 18.5 5.5 37 7.5 S 6 9 3 5 1019.1 1019.1 0.0
27/12:30pm 20.0 18.1 7.4 44 6.4 SW 7 13 4 7 1019.9 1019.9 0.0
27/12:00pm 18.9 17.1 7.0 46 6.0 WSW 6 7 3 4 1020.6 1020.6 0.0
27/11:30am 18.3 17.1 9.4 56 4.7 W 6 7 3 4 1020.9 1020.9 0.0
27/11:00am 17.9 16.5 9.5 58 4.4 WSW 7 9 4 5 1020.7 1020.7 0.0
27/10:30am 18.1 18.1 9.7 58 4.4 CALM 0 2 0 1 1021.3 1021.3 0.0
27/10:00am 16.8 16.7 9.5 62 3.8 CALM 0 0 0 0 1021.7 1021.7 0.0
27/09:30am 16.1 15.5 9.1 63 3.6 SW 2 4 1 2 1022.0 1022.0 0.0
27/09:00am 15.2 15.0 8.9 66 3.2 CALM 0 0 0 0 1022.1 1022.1 0.0
27/08:30am 14.8 14.3 9.4 70 2.8 SSW 2 4 1 2 1022.0 1022.0 0.0
27/08:00am 14.4 14.0 9.8 74 2.4 SW 2 4 1 2 1021.7 1021.7 0.0
27/07:30am 13.6 13.7 10.2 80 1.8 CALM 0 0 0 0 1021.5 1021.5 0.0
27/07:00am 12.8 12.7 9.4 80 1.7 CALM 0 0 0 0 1021.3 1021.3 0.0
27/06:30am 12.5 12.3 9.0 79 1.8 CALM 0 0 0 0 1021.1 1021.1 0.0
27/06:00am 12.7 12.0 8.4 75 2.1 NNE 2 6 1 3 1020.7 1020.7 0.0
27/05:30am 12.3 10.8 8.4 77 1.9 S 6 7 3 4 1020.0 1020.0 0.0
27/05:00am 12.4 11.4 8.7 78 1.8 SSE 4 6 2 3 1020.2 1020.2 0.0
27/04:30am 12.1 11.1 8.9 81 1.6 E 4 6 2 3 1020.3 1020.3 0.0
27/04:00am 12.2 11.2 8.9 80 1.6 WSW 4 4 2 2 1020.4 1020.4 0.0
27/03:30am 12.9 12.3 8.8 76 2.1 E 2 4 1 2 1020.1 1020.1 0.0
27/03:00am 12.6 12.5 9.4 81 1.6 CALM 0 0 0 0 1020.4 1020.4 0.0
27/02:30am 12.6 11.8 9.6 82 1.5 E 4 6 2 3 1019.9 1019.9 0.0
27/02:00am 12.6 12.1 9.4 81 1.6 ESE 2 6 1 3 1020.1 1020.1 0.0
27/01:30am 11.8 11.6 9.2 84 1.3 CALM 0 2 0 1 1020.7 1020.7 0.0
27/01:00am 11.6 11.4 9.0 84 1.3 CALM 0 2 0 1 1020.1 1020.1 0.0
27/12:30am 11.9 12.0 10.0 88 1.0 CALM 0 0 0 0 1020.6 1020.6 0.0
27/12:00am 11.3 11.0 8.7 84 1.3 CALM 0 0 0 0 1020.7 1020.7 0.0
 
Date/Time
EST
Tmp

°C
App
Tmp
°C
Dew
Point
°C
Rel
Hum
%
Delta-T

°C
Wind Press
QNH
hPa
Press
MSL
hPa
Rain
since
9 am
mm
Dir
 
Spd
km/h
Gust
km/h
Spd
kts
Gust
kts
26/11:30pm 13.6 12.9 10.0 79 1.9 ESE 4 6 2 3 1020.8 1020.8 0.0
26/11:00pm 11.8 11.5 8.6 81 1.6 CALM 0 0 0 0 1020.9 1020.9 0.0
26/10:30pm 12.2 12.0 9.2 82 1.5 CALM 0 0 0 0 1021.0 1021.0 0.0
26/10:00pm 12.3 11.5 8.0 75 2.1 S 2 2 1 1 1020.9 1020.9 0.0
26/09:30pm 13.2 12.4 8.3 72 2.4 SSW 2 6 1 3 1020.8 1020.8 0.0
26/09:00pm 14.0 13.6 8.2 68 2.9 CALM 0 0 0 0 1020.6 1020.6 0.0
26/08:30pm 18.6 17.3 7.7 49 5.6 N 4 7 2 4 1020.4 1020.4 0.0
26/08:00pm 16.9 16.1 8.1 56 4.5 E 2 4 1 2 1020.4 1020.4 0.0
26/07:30pm 16.5 14.9 8.2 58 4.2 NE 6 7 3 4 1019.8 1019.8 0.0
26/07:00pm 19.3 18.2 8.6 50 5.6 NE 4 4 2 2 1019.3 1019.3 0.0
26/06:30pm 21.4 20.8 9.0 45 6.6 NNE 2 4 1 2 1018.8 1018.8 0.0
26/06:00pm 22.8 22.2 7.4 37 8.0 CALM 0 0 0 0 1018.4 1018.4 0.0
26/05:30pm 23.8 22.5 7.8 36 8.4 WSW 4 7 2 4 1017.9 1017.9 0.0
26/05:00pm 25.9 24.2 8.4 33 9.4 SW 7 11 4 6 1017.4 1017.4 0.0
26/04:30pm 27.5 26.9 8.9 31 10.2 WSW 2 6 1 3 1017.0 1017.0 0.0
26/04:00pm 27.3 25.7 8.7 31 10.2 W 7 9 4 5 1017.1 1017.1 0.0
26/03:30pm 27.7 25.9 8.1 29 10.6 WNW 7 13 4 7 1016.7 1016.7 0.0
26/03:00pm 27.3 24.8 8.2 30 10.3 WNW 11 19 6 10 1016.8 1016.8 0.0
26/02:30pm 27.3 24.5 8.7 31 10.2 WNW 13 20 7 11 1017.2 1017.2 0.0
26/02:00pm 27.1 25.3 9.5 33 9.7 WNW 9 19 5 10 1017.4 1017.4 0.0
26/01:30pm 26.7 25.0 10.0 35 9.3 WNW 9 17 5 9 1017.6 1017.6 0.0
26/01:00pm 26.1 24.3 9.5 35 9.1 WNW 9 15 5 8 1018.1 1018.1 0.0
26/12:30pm 25.8 23.8 10.0 37 8.8 W 11 20 6 11 1018.6 1018.6 0.0
26/12:00pm 25.2 25.0 10.6 40 8.1 NNE 2 6 1 3 1019.4 1019.4 0.0
26/11:30am 24.4 23.6 9.6 39 8.1 NW 4 7 2 4 1019.9 1019.9 0.0
26/11:00am 23.6 22.7 10.6 44 7.2 WNW 6 9 3 5 1020.2 1020.2 0.0
26/10:30am 22.6 22.8 12.0 51 6.0 NNE 2 7 1 4 1020.9 1020.9 0.0
26/10:00am 20.6 20.9 12.3 59 4.7 S 2 4 1 2 1021.2 1021.2 0.0
26/09:30am 19.7 19.9 12.0 61 4.3 NW 2 6 1 3 1021.3 1021.3 0.0
26/09:00am 17.4 18.6 13.9 80 2.0 CALM 0 4 0 2 1021.5 1021.5 0.2
26/08:30am 17.1 17.4 13.4 79 2.1 SSW 4 6 2 3 1021.3 1021.3 0.2
26/08:00am 16.3 17.3 13.2 82 1.7 CALM 0 0 0 0 1021.2 1021.2 0.2
26/07:30am 15.6 16.8 13.8 89 1.0 CALM 0 2 0 1 1021.1 1021.1 0.2
26/07:00am 14.6 15.3 13.5 93 0.6 N 2 4 1 2 1020.8 1020.8 0.2
26/06:30am 13.0 13.7 12.1 94 0.5 CALM 0 4 0 2 1020.1 1020.1 0.2
26/06:00am 12.9 13.5 11.8 93 0.6 CALM 0 0 0 0 1019.7 1019.7 0.2
26/05:30am 13.2 13.9 12.1 93 0.6 CALM 0 4 0 2 1019.4 1019.4 0.2
26/05:00am 13.7 14.6 12.8 94 0.5 CALM 0 2 0 1 1019.1 1019.1 0.2
26/04:30am 12.9 13.5 12.0 94 0.5 CALM 0 0 0 0 1019.1 1019.1 0.2
26/04:00am 13.6 14.4 12.7 94 0.5 CALM 0 0 0 0 1018.7 1018.7 0.2
26/03:30am 14.2 14.8 13.2 94 0.6 E 2 4 1 2 1018.7 1018.7 0.2
26/03:00am 14.0 15.0 13.2 95 0.4 CALM 0 0 0 0 1018.5 1018.5 0.2
26/02:30am 14.1 15.1 13.1 94 0.6 CALM 0 0 0 0 1018.7 1018.7 0.2
26/02:00am 14.3 15.4 13.5 95 0.4 CALM 0 6 0 3 1018.6 1018.6 0.2
26/01:30am 14.5 15.7 13.7 95 0.4 CALM 0 0 0 0 1019.0 1019.0 0.2
26/01:00am 12.8 13.2 11.2 90 0.8 CALM 0 0 0 0 1019.1 1019.1 0.2
26/12:30am 14.6 15.7 13.5 93 0.6 CALM 0 0 0 0 1019.1 1019.1 0.2
26/12:00am 14.4 15.3 12.8 90 0.9 CALM 0 0 0 0 1019.0 1019.0 0.2
 
Date/Time
EST
Tmp

°C
App
Tmp
°C
Dew
Point
°C
Rel
Hum
%
Delta-T

°C
Wind Press
QNH
hPa
Press
MSL
hPa
Rain
since
9 am
mm
Dir
 
Spd
km/h
Gust
km/h
Spd
kts
Gust
kts
25/11:30pm 15.4 16.4 13.2 87 1.2 CALM 0 0 0 0 1018.9 1018.9 0.2
25/11:00pm 16.6 17.6 14.2 86 1.4 E 2 4 1 2 1018.8 1018.8 0.2
25/10:30pm 17.4 19.0 15.0 86 1.4 CALM 0 0 0 0 1018.7 1018.7 0.2
25/10:00pm 18.4 19.8 15.3 82 1.8 NW 2 4 1 2 1018.6 1018.6 0.2
25/09:30pm 18.6 20.0 15.5 82 1.8 SSE 2 6 1 3 1018.4 1018.4 0.2
25/09:00pm 19.4 21.1 15.1 76 2.5 CALM 0 0 0 0 1018.5 1018.5 0.2
25/08:30pm 20.8 22.0 15.8 73 3.0 NNE 4 6 2 3 1018.5 1018.5 0.2
25/08:00pm 20.6 21.6 15.4 72 3.1 NNE 4 6 2 3 1018.0 1018.0 0.2
25/07:30pm 21.5 23.0 15.8 70 3.4 N 2 6 1 3 1018.1 1018.1 0.2
25/07:00pm 22.3 23.3 15.4 65 4.1 NNW 4 9 2 5 1017.5 1017.5 0.2
25/06:30pm 22.8 23.1 15.1 62 4.6 WNW 7 15 4 8 1017.2 1017.2 0.2
25/06:00pm 23.4 22.9 14.9 59 5.1 NW 11 20 6 11 1016.7 1016.7 0.2
25/05:30pm 24.0 23.2 15.0 57 5.4 NW 13 20 7 11 1016.3 1016.3 0.2
25/05:00pm 24.8 24.3 14.9 54 5.9 WNW 11 20 6 11 1016.1 1016.1 0.2
25/04:30pm 25.7 23.9 14.5 50 6.7 WNW 17 32 9 17 1016.0 1016.0 0.2
25/04:00pm 26.1 24.5 14.9 50 6.7 NW 17 26 9 14 1015.9 1015.9 0.2
25/03:30pm 26.4 25.1 14.8 49 7.0 NW 15 26 8 14 1015.9 1015.9 0.2
25/03:00pm 25.9 24.3 15.0 51 6.6 WNW 17 28 9 15 1016.1 1016.1 0.2
25/02:30pm 25.6 24.6 14.7 51 6.5 NW 13 28 7 15 1016.2 1016.2 0.2
25/02:00pm 26.1 24.1 14.9 50 6.7 WNW 19 28 10 15 1016.4 1016.4 0.2
25/01:30pm 25.6 24.0 15.0 52 6.4 WNW 17 28 9 15 1016.6 1016.6 0.2
25/01:00pm 25.1 21.4 15.1 53 6.0 WNW 28 39 15 21 1016.7 1016.7 0.2
25/12:30pm 25.6 24.4 16.2 56 5.8 WNW 17 26 9 14 1017.2 1017.2 0.2

Latest Capital City Observations: Canberra | Sydney | Melbourne | Brisbane | Adelaide | Perth | Hobart | Darwin

Other Formats:

Comma delimited format used in spreadsheet applications
http://www.bom.gov.au/fwo/IDQ60901/IDQ60901.95575.axf

JavaScript Object Notation format (JSON) in row-major order
http://www.bom.gov.au/fwo/IDQ60901/IDQ60901.95575.json